Winesburg, Ohio
Current Conditions -  °F | °C
As of 3:53 AM on Thursday 18 Dec 2014 (Local Time) from KPHD Reporting Station
Overcast Overcast  
Wind Chill: 20°   Ceiling: 2400
Heat Index: 29°   Visibility: 10mi
Dew Point: 19°   Wind: 9mph
Humidity: 67%   Direction: 280°W
Pressure: 30.22"   Gusts: NA
Location:  40.62°N, 81.7°W
Report Text: KPHD 180853Z AUTO 28008KT 10SM OVC024 M02/M07 A3022 RMK AO2 SLP243 T10171072 51008
Loading
Personal Weather Stations






























Interactive Weather Map New forecast layout! Learn more

10-Day Weather Forecast

Advertisements
Track Severe Weather on mobile